Time;durP1;ratioP1;P1;durP2;ratioP2;P2;SDS_P1;SDS_P2;PMS_P1;PMS_P2;Temp;Humidity;BMP_temperature;BMP_pressure;BME280_temperature;BME280_humidity;BME280_pressure;Samples;Min_cycle;Max_cycle;Signal;HPM_P1;HPM_P2
2022/10/04 00:00:51;;;;;;;14.57;10.17;;;;;;;8.31;100.00;153493.47;5032928;28;20447;-75
2022/10/04 00:03:23;;;;;;;13.50;10.07;;;;;;;8.32;100.00;153496.00;5053232;28;20821;-75
2022/10/04 00:05:51;;;;;;;14.33;10.40;;;;;;;8.28;100.00;153487.00;5051659;28;20451;-75
2022/10/04 00:08:26;;;;;;;10.73;9.60;;;;;;;8.27;100.00;153484.41;5034966;28;20545;-75
2022/10/04 00:11:02;;;;;;;12.13;9.80;;;;;;;8.25;100.00;153477.88;5019734;28;20469;-74
2022/10/04 00:13:29;;;;;;;12.63;9.83;;;;;;;8.24;100.00;153475.28;5053313;28;20439;-74
2022/10/04 00:15:55;;;;;;;13.60;10.90;;;;;;;8.23;100.00;153474.03;5055111;28;20453;-74
2022/10/04 00:18:30;;;;;;;13.37;10.80;;;;;;;8.22;100.00;153471.44;5036847;28;20470;-74
2022/10/04 00:21:02;;;;;;;11.53;9.93;;;;;;;8.17;100.00;153458.50;5033635;28;20450;-74
2022/10/04 00:23:41;;;;;;;12.30;10.30;;;;;;;8.14;100.00;153450.75;5036030;28;20569;-74
2022/10/04 00:26:15;;;;;;;14.27;10.07;;;;;;;8.14;100.00;153449.44;5036039;28;20439;-73
2022/10/04 00:28:44;;;;;;;17.40;11.60;;;;;;;8.10;100.00;153440.38;5053857;28;20441;-74
2022/10/04 00:31:23;;;;;;;13.57;10.53;;;;;;;8.07;100.00;153431.38;5052903;28;20431;-74
2022/10/04 00:34:40;;;;;;;12.57;9.57;;;;;;;8.06;100.00;153430.06;5052721;28;20443;-74
2022/10/04 00:37:13;;;;;;;11.80;9.53;;;;;;;8.01;100.00;153417.16;5023958;28;20881;-74
2022/10/04 00:39:44;;;;;;;13.00;9.97;;;;;;;8.04;100.00;153424.91;5050398;28;20459;-74
2022/10/04 00:42:36;;;;;;;10.67;9.40;;;;;;;7.99;100.00;153413.25;5037837;28;20497;-74
2022/10/04 00:45:09;;;;;;;13.47;10.13;;;;;;;7.96;100.00;153405.53;5035383;28;20959;-74
2022/10/04 00:47:53;;;;;;;12.50;9.93;;;;;;;7.93;100.00;153397.78;5036431;28;20952;-74
2022/10/04 00:50:24;;;;;;;13.70;9.70;;;;;;;7.95;100.00;153402.94;5053113;28;20485;-74
2022/10/04 00:52:54;;;;;;;12.30;11.00;;;;;;;7.94;100.00;153399.09;5052680;28;20461;-74
2022/10/04 00:55:25;;;;;;;13.30;10.77;;;;;;;7.93;100.00;153396.47;5035715;28;20914;-74
2022/10/04 00:57:57;;;;;;;13.60;11.27;;;;;;;7.89;100.00;153386.13;5051377;28;20466;-74
2022/10/04 01:00:24;;;;;;;13.97;11.10;;;;;;;7.88;100.00;153383.56;5034512;28;20442;-74
2022/10/04 01:02:53;;;;;;;15.30;11.90;;;;;;;7.87;100.00;153380.97;5037110;28;20450;-85
2022/10/04 01:05:25;;;;;;;14.87;11.53;;;;;;;7.84;100.00;153373.19;5054809;28;20427;-86
2022/10/04 01:07:55;;;;;;;18.90;11.83;;;;;;;7.90;100.00;153388.72;5054877;28;20451;-86
2022/10/04 01:10:26;;;;;;;13.47;9.83;;;;;;;7.86;100.00;153378.41;5037446;28;20485;-86
2022/10/04 01:12:54;;;;;;;13.37;9.87;;;;;;;7.85;100.00;153377.09;5036978;28;20443;-86
2022/10/04 01:15:27;;;;;;;11.93;10.00;;;;;;;7.81;100.00;153366.75;5037173;28;20447;-86
2022/10/04 01:18:12;;;;;;;13.63;10.23;;;;;;;7.79;100.00;153360.28;5054953;28;20454;-85
2022/10/04 01:20:40;;;;;;;14.30;10.30;;;;;;;7.81;100.00;153366.75;5053017;28;20450;-85
2022/10/04 01:23:10;;;;;;;12.77;9.67;;;;;;;7.78;100.00;153357.72;5037397;28;20439;-85
2022/10/04 01:25:45;;;;;;;11.67;10.07;;;;;;;7.77;100.00;153355.13;5037178;28;20451;-85
2022/10/04 01:28:12;;;;;;;10.83;9.10;;;;;;;7.74;100.00;153347.38;5054817;28;20458;-85
2022/10/04 01:30:39;;;;;;;11.80;9.30;;;;;;;7.68;100.00;153331.84;5054192;28;20487;-85
2022/10/04 01:33:06;;;;;;;9.73;8.70;;;;;;;7.63;100.00;153320.25;5052480;28;20435;-85
2022/10/04 01:35:34;;;;;;;10.17;8.20;;;;;;;7.62;100.00;153317.69;5055134;28;20427;-85
2022/10/04 01:38:01;;;;;;;10.07;8.50;;;;;;;7.62;100.00;153316.41;5054362;28;21168;-85
2022/10/04 01:40:31;;;;;;;10.50;8.50;;;;;;;7.63;100.00;153318.94;5055110;28;20434;-85
2022/10/04 01:43:00;;;;;;;10.17;8.10;;;;;;;7.61;100.00;153313.78;5036887;28;20496;-85
2022/10/04 01:45:30;;;;;;;12.80;8.50;;;;;;;7.60;100.00;153312.50;5054797;28;20447;-85
2022/10/04 01:48:00;;;;;;;10.70;8.47;;;;;;;7.58;100.00;153306.03;5054621;28;20423;-85
2022/10/04 01:50:29;;;;;;;11.70;8.80;;;;;;;7.59;100.00;153308.63;5054803;28;20445;-85
2022/10/04 01:53:00;;;;;;;10.10;8.43;;;;;;;7.58;100.00;153306.03;5054661;28;20429;-85
2022/10/04 01:55:33;;;;;;;10.60;8.37;;;;;;;7.58;100.00;153306.03;5017225;28;1079361;-85
2022/10/04 01:58:03;;;;;;;8.83;7.73;;;;;;;7.60;100.00;153311.25;5037095;28;20249;-85
2022/10/04 02:00:37;;;;;;;11.00;8.50;;;;;;;7.62;100.00;153316.41;5037919;28;20447;-85
2022/10/04 02:03:05;;;;;;;13.60;9.33;;;;;;;7.65;100.00;153324.16;5037489;28;20967;-85
2022/10/04 02:05:35;;;;;;;11.10;8.83;;;;;;;7.58;100.00;153307.34;5037239;28;20443;-85
2022/10/04 02:08:04;;;;;;;8.93;8.00;;;;;;;7.54;100.00;153295.72;5037211;28;20427;-85
2022/10/04 02:10:35;;;;;;;10.30;7.60;;;;;;;7.52;100.00;153290.56;5037468;28;20451;-85
2022/10/04 02:13:02;;;;;;;10.17;8.90;;;;;;;7.53;100.00;153293.13;5037004;28;20424;-85
2022/10/04 02:15:29;;;;;;;9.50;7.67;;;;;;;7.52;100.00;153290.56;5054832;28;20431;-85
2022/10/04 02:17:57;;;;;;;12.10;8.60;;;;;;;7.52;100.00;153291.81;5054530;28;20493;-85
2022/10/04 02:20:26;;;;;;;9.10;7.93;;;;;;;7.50;100.00;153285.38;5036818;28;20967;-85
2022/10/04 02:22:58;;;;;;;11.73;8.13;;;;;;;7.41;100.00;153262.16;5054952;28;21140;-85
2022/10/04 02:25:25;;;;;;;10.37;8.70;;;;;;;7.39;100.00;153258.25;5036093;28;20931;-85
2022/10/04 02:27:56;;;;;;;7.97;7.17;;;;;;;7.33;100.00;153244.03;5036917;28;20446;-85
2022/10/04 02:30:24;;;;;;;8.30;7.27;;;;;;;7.35;100.00;153249.25;5054625;28;20929;-85
2022/10/04 02:32:59;;;;;;;8.87;7.90;;;;;;;7.30;100.00;153235.03;5054556;28;20431;-85
2022/10/04 02:35:27;;;;;;;10.10;8.40;;;;;;;7.28;100.00;153231.13;5036663;28;20446;-85
2022/10/04 02:38:02;;;;;;;9.50;8.00;;;;;;;7.26;100.00;153224.66;5036642;28;20462;-85
2022/10/04 02:40:31;;;;;;;10.07;7.83;;;;;;;7.23;100.00;153218.22;5036944;28;20445;-85
2022/10/04 02:43:02;;;;;;;9.27;7.50;;;;;;;7.23;100.00;153216.91;5036169;28;20811;-85
2022/10/04 02:45:37;;;;;;;9.83;8.03;;;;;;;7.22;100.00;153215.66;5059494;28;20436;-85
2022/10/04 02:48:10;;;;;;;8.90;8.00;;;;;;;7.19;100.00;153206.63;5056298;28;20530;-85
2022/10/04 02:50:41;;;;;;;8.73;7.83;;;;;;;7.21;100.00;153211.78;5042191;28;20450;-85
2022/10/04 02:53:12;;;;;;;9.17;7.53;;;;;;;7.15;100.00;153197.56;5043924;28;20422;-85
2022/10/04 02:55:41;;;;;;;8.90;8.00;;;;;;;7.13;100.00;153192.41;5017915;28;20538;-85
2022/10/04 02:58:12;;;;;;;12.10;9.30;;;;;;;7.11;100.00;153187.25;5034060;28;20818;-85
2022/10/04 03:00:46;;;;;;;9.40;8.50;;;;;;;7.08;100.00;153179.50;5035991;28;20450;-85
2022/10/04 03:03:21;;;;;;;10.50;8.50;;;;;;;7.08;100.00;153178.19;5016399;28;20519;-85
2022/10/04 03:06:04;;;;;;;8.73;7.83;;;;;;;7.04;100.00;153169.16;5016616;28;20443;-85
2022/10/04 03:08:33;;;;;;;9.27;8.03;;;;;;;7.01;100.00;153160.13;5030235;28;20513;-85
2022/10/04 03:11:00;;;;;;;8.13;7.33;;;;;;;6.98;100.00;153153.69;5036239;28;20450;-85
2022/10/04 03:13:28;;;;;;;10.73;8.23;;;;;;;6.97;100.00;153151.09;5035768;28;20504;-85
2022/10/04 03:15:55;;;;;;;8.10;7.07;;;;;;;6.94;100.00;153143.34;5036453;28;20450;-85
2022/10/04 03:18:22;;;;;;;9.47;7.50;;;;;;;6.96;100.00;153148.53;5035669;28;20475;-85
2022/10/04 03:20:49;;;;;;;9.17;8.27;;;;;;;6.95;100.00;153145.94;5054226;28;20445;-85
2022/10/04 03:23:17;;;;;;;11.03;8.60;;;;;;;6.93;100.00;153140.78;5035996;28;20434;-85
2022/10/04 03:25:50;;;;;;;9.30;7.90;;;;;;;6.94;100.00;153142.03;5035658;28;20443;-85
2022/10/04 03:28:17;;;;;;;9.00;7.67;;;;;;;6.91;100.00;153135.59;5035745;28;20435;-86
2022/10/04 03:30:46;;;;;;;7.73;6.93;;;;;;;6.90;100.00;153131.72;5052475;28;20461;-86
2022/10/04 03:33:17;;;;;;;9.93;7.53;;;;;;;6.87;100.00;153125.28;5053684;28;20435;-86
2022/10/04 03:35:46;;;;;;;9.63;8.10;;;;;;;6.86;100.00;153122.69;5053595;28;20780;-86
2022/10/04 03:38:13;;;;;;;8.83;7.90;;;;;;;6.84;100.00;153117.53;5043319;28;20513;-86
2022/10/04 03:40:44;;;;;;;12.03;7.57;;;;;;;6.87;100.00;153125.28;5032790;28;20452;-86
2022/10/04 03:43:12;;;;;;;8.00;7.20;;;;;;;6.86;100.00;153122.69;5015974;28;20447;-86
2022/10/04 03:45:40;;;;;;;9.10;7.50;;;;;;;6.85;100.00;153120.13;5037813;28;20458;-86
2022/10/04 03:48:12;;;;;;;8.70;7.67;;;;;;;6.87;100.00;153125.28;5053509;28;20415;-86
2022/10/04 03:50:42;;;;;;;9.03;7.13;;;;;;;6.87;100.00;153125.28;5035754;28;20447;-86
2022/10/04 03:53:12;;;;;;;7.97;6.90;;;;;;;6.84;100.00;153116.22;5035340;28;20842;-86
2022/10/04 03:55:43;;;;;;;8.93;6.90;;;;;;;6.85;100.00;153118.81;5053069;28;20552;-86
2022/10/04 03:58:11;;;;;;;8.27;7.23;;;;;;;6.84;100.00;153116.22;5053419;28;20601;-86
2022/10/04 04:00:41;;;;;;;10.00;7.40;;;;;;;6.83;100.00;153114.94;5035993;28;20844;-86
2022/10/04 04:03:12;;;;;;;8.23;7.20;;;;;;;6.79;100.00;153104.63;5053229;28;20431;-86
2022/10/04 04:05:43;;;;;;;9.50;7.03;;;;;;;6.79;100.00;153104.63;5035906;28;20497;-86
2022/10/04 04:08:13;;;;;;;9.90;8.20;;;;;;;6.76;100.00;153096.88;5019642;28;20457;-86
2022/10/04 04:10:43;;;;;;;13.10;7.47;;;;;;;6.73;100.00;153090.41;5053757;28;20478;-86
2022/10/04 04:13:18;;;;;;;9.50;7.70;;;;;;;6.72;100.00;153086.56;5053201;28;20815;-86
2022/10/04 04:15:45;;;;;;;9.17;7.57;;;;;;;6.71;100.00;153085.28;5033858;28;20472;-86
2022/10/04 04:18:17;;;;;;;10.80;8.77;;;;;;;6.71;100.00;153083.97;5053216;28;20477;-86
2022/10/04 04:20:44;;;;;;;16.47;9.67;;;;;;;6.69;100.00;153078.81;5053890;28;20442;-86
2022/10/04 04:23:17;;;;;;;8.47;7.57;;;;;;;6.67;100.00;153073.66;5053057;28;20910;-86
2022/10/04 04:25:46;;;;;;;10.80;8.93;;;;;;;6.68;100.00;153076.22;5035488;28;20461;-86
2022/10/04 04:28:24;;;;;;;11.43;8.50;;;;;;;6.73;100.00;153089.13;5034298;28;20442;-86
2022/10/04 04:30:53;;;;;;;10.27;7.80;;;;;;;6.72;100.00;153086.56;5035456;28;20492;-86
2022/10/04 04:33:26;;;;;;;9.67;8.13;;;;;;;6.70;100.00;153082.66;5053197;28;20427;-86
2022/10/04 04:35:55;;;;;;;8.37;7.30;;;;;;;6.65;100.00;153068.47;5035176;28;20987;-86
2022/10/04 04:38:23;;;;;;;11.70;8.13;;;;;;;6.67;100.00;153074.91;5052747;28;20501;-86
2022/10/04 04:40:54;;;;;;;10.97;8.93;;;;;;;6.69;100.00;153078.81;5053818;28;21102;-86
2022/10/04 04:43:22;;;;;;;9.80;8.80;;;;;;;6.74;100.00;153091.72;5052795;28;20803;-86
2022/10/04 04:45:49;;;;;;;10.57;8.03;;;;;;;6.72;100.00;153087.81;5054234;28;20435;-86
2022/10/04 04:48:17;;;;;;;10.97;8.50;;;;;;;6.67;100.00;153074.91;5036910;28;20439;-85
2022/10/04 04:50:50;;;;;;;10.83;7.97;;;;;;;6.66;100.00;153071.06;5056734;28;20488;-85
2022/10/04 04:53:19;;;;;;;10.00;8.10;;;;;;;6.68;100.00;153076.22;5056476;28;20458;-85
2022/10/04 04:55:47;;;;;;;9.70;8.23;;;;;;;6.69;100.00;153080.13;5060693;28;20485;-86
2022/10/04 04:58:20;;;;;;;11.23;8.90;;;;;;;6.66;100.00;153071.06;5046366;28;20512;-85
2022/10/04 05:00:54;;;;;;;11.43;9.27;;;;;;;6.65;100.00;153069.78;5060485;28;20446;-85
2022/10/04 05:03:21;;;;;;;9.50;8.57;;;;;;;6.61;100.00;153059.47;5038273;28;20435;-86
2022/10/04 05:05:49;;;;;;;10.63;8.83;;;;;;;6.64;100.00;153065.91;5038819;28;20443;-86
2022/10/04 05:08:19;;;;;;;15.50;9.17;;;;;;;6.61;100.00;153058.16;5035143;28;20530;-87
2022/10/04 05:10:49;;;;;;;11.33;9.80;;;;;;;6.58;100.00;153050.41;5055762;28;20848;-86
2022/10/04 05:13:18;;;;;;;13.20;8.70;;;;;;;6.58;100.00;153050.41;5035783;28;20522;-86
2022/10/04 05:15:53;;;;;;;10.27;9.17;;;;;;;6.55;100.00;153042.66;5018648;28;20452;-86
2022/10/04 05:18:28;;;;;;;10.90;8.70;;;;;;;6.48;100.00;153024.63;5036024;28;20799;-86
2022/10/04 05:20:58;;;;;;;11.67;9.03;;;;;;;6.48;100.00;153024.63;5018243;28;20455;-87
2022/10/04 05:23:25;;;;;;;9.50;8.43;;;;;;;6.43;100.00;153013.03;5049865;28;20451;-85
2022/10/04 05:25:52;;;;;;;12.67;9.50;;;;;;;6.39;100.00;153002.66;5056139;28;20427;-86
2022/10/04 05:28:18;;;;;;;11.50;9.17;;;;;;;6.39;100.00;153002.66;5054381;28;20446;-86
2022/10/04 05:30:51;;;;;;;10.43;9.33;;;;;;;6.37;100.00;152997.53;5037286;28;20455;-86
2022/10/04 05:33:22;;;;;;;9.43;8.30;;;;;;;6.38;100.00;152998.81;5037397;28;20490;-86
2022/10/04 05:36:02;;;;;;;11.20;8.73;;;;;;;6.42;100.00;153010.41;5055151;28;20914;-86
2022/10/04 05:38:37;;;;;;;11.47;9.27;;;;;;;6.45;100.00;153016.88;5040157;28;20474;-85
2022/10/04 05:41:08;;;;;;;8.93;8.03;;;;;;;6.46;100.00;153019.47;5055138;28;20824;-85
2022/10/04 05:43:37;;;;;;;8.97;8.07;;;;;;;6.45;100.00;153016.88;5035019;28;20983;-85
2022/10/04 05:46:13;;;;;;;11.83;8.83;;;;;;;6.47;100.00;153023.31;5036814;28;20451;-85
2022/10/04 05:48:42;;;;;;;10.30;8.80;;;;;;;6.48;100.00;153024.63;5053519;28;20450;-85
2022/10/04 05:51:17;;;;;;;9.50;8.30;;;;;;;6.55;100.00;153042.66;5037445;28;20473;-85
2022/10/04 05:53:45;;;;;;;12.10;8.77;;;;;;;6.60;100.00;153055.56;5054793;28;20434;-85
2022/10/04 05:56:21;;;;;;;9.67;8.77;;;;;;;6.63;100.00;153063.31;5036637;28;20478;-85
2022/10/04 05:59:00;;;;;;;9.20;8.23;;;;;;;6.70;100.00;153081.38;5050773;28;20537;-85
2022/10/04 06:01:42;;;;;;;9.63;8.57;;;;;;;6.78;100.00;153102.03;5053993;28;20933;-85
2022/10/04 06:04:20;;;;;;;11.90;9.13;;;;;;;6.80;100.00;153107.22;5054654;28;20419;-85
2022/10/04 06:06:51;;;;;;;10.23;8.37;;;;;;;6.84;100.00;153117.53;5054792;28;20446;-85
2022/10/04 06:09:31;;;;;;;8.80;7.60;;;;;;;6.87;100.00;153123.97;5053218;28;20439;-85
2022/10/04 06:12:01;;;;;;;10.70;7.70;;;;;;;6.94;100.00;153142.03;5047906;28;20442;-85
2022/10/04 06:14:49;;;;;;;9.30;8.40;;;;;;;7.00;100.00;153158.84;5035484;28;20820;-85
2022/10/04 06:17:41;;;;;;;12.23;8.97;;;;;;;7.07;100.00;153176.91;5034192;28;20495;-84
2022/10/04 06:20:44;;;;;;;9.53;8.57;;;;;;;7.20;100.00;153210.47;5051333;28;20486;-85
2022/10/04 06:23:15;;;;;;;10.63;9.00;;;;;;;7.31;100.00;153237.59;5031591;28;21070;-84
2022/10/04 06:25:46;;;;;;;10.23;8.10;;;;;;;7.46;100.00;153275.06;5050772;28;21016;-85
2022/10/04 06:28:17;;;;;;;10.37;9.30;;;;;;;7.54;100.00;153297.03;5049424;28;20900;-85
2022/10/04 06:31:04;;;;;;;9.33;7.80;;;;;;;7.59;100.00;153308.63;5032157;28;20439;-85
2022/10/04 06:33:47;;;;;;;9.60;8.60;;;;;;;7.58;100.00;153306.03;5032558;28;20450;-84
2022/10/04 06:36:34;;;;;;;11.17;9.20;;;;;;;7.61;100.00;153313.78;5050272;28;20451;-84
2022/10/04 06:39:34;;;;;;;10.77;7.90;;;;;;;7.64;100.00;153321.56;5013183;28;20633;-85
2022/10/04 06:42:38;;;;;;;9.13;7.70;;;;;;;7.67;100.00;153329.31;5032404;28;21028;-85
2022/10/04 06:45:23;;;;;;;9.03;7.70;;;;;;;7.71;100.00;153339.63;4969238;28;20453;-85
2022/10/04 06:48:05;;;;;;;9.07;7.93;;;;;;;7.72;100.00;153342.22;5042211;28;20542;-85
2022/10/04 06:50:38;;;;;;;12.33;8.77;;;;;;;7.78;100.00;153357.72;5056587;28;20455;-84
2022/10/04 06:53:15;;;;;;;9.40;8.17;;;;;;;7.84;100.00;153373.19;5049474;28;20447;-84
2022/10/04 06:56:11;;;;;;;8.33;7.53;;;;;;;7.89;100.00;153386.13;5034640;28;20478;-83
2022/10/04 06:58:55;;;;;;;11.63;7.17;;;;;;;7.97;100.00;153406.78;5046746;28;20830;-87
2022/10/04 07:01:26;;;;;;;8.70;7.20;;;;;;;8.06;100.00;153430.06;5049637;28;20450;-86
2022/10/04 07:03:57;;;;;;;7.73;7.00;;;;;;;8.14;100.00;153449.44;5050975;28;20918;-87
2022/10/04 07:06:27;;;;;;;8.50;7.23;;;;;;;8.22;100.00;153470.13;5033800;28;20469;-87
2022/10/04 07:08:58;;;;;;;9.80;7.17;;;;;;;8.29;100.00;153489.56;5035511;28;20423;-87
2022/10/04 07:11:27;;;;;;;9.10;7.13;;;;;;;8.37;100.00;153510.22;5052245;28;20508;-87
2022/10/04 07:13:59;;;;;;;8.70;7.23;;;;;;;8.45;100.00;153530.91;5053191;28;20439;-87
2022/10/04 07:16:32;;;;;;;7.17;6.47;;;;;;;8.52;100.00;153549.00;5035379;28;20549;-87
2022/10/04 07:19:25;;;;;;;8.43;7.63;;;;;;;8.54;100.00;153554.19;5015400;28;20555;-87
2022/10/04 07:21:57;;;;;;;8.40;7.13;;;;;;;8.54;100.00;153554.19;5047518;28;20454;-86
2022/10/04 07:24:28;;;;;;;11.70;6.93;;;;;;;8.56;100.00;153559.38;5050447;28;20543;-86
2022/10/04 07:26:55;;;;;;;7.50;6.33;;;;;;;8.62;100.00;153573.59;5035083;28;20451;-86
2022/10/04 07:29:27;;;;;;;10.40;8.50;;;;;;;8.64;100.00;153578.75;5052954;28;20500;-86
2022/10/04 07:32:09;;;;;;;10.37;7.57;;;;;;;8.70;100.00;153594.28;5035288;28;20447;-87
2022/10/04 07:34:39;;;;;;;9.80;7.40;;;;;;;8.75;100.00;153605.91;5027318;28;20808;-87
2022/10/04 07:37:11;;;;;;;9.67;7.10;;;;;;;8.80;100.00;153618.81;5044311;28;20466;-87
2022/10/04 07:39:44;;;;;;;11.50;7.80;;;;;;;8.87;100.00;153636.94;5027823;28;20464;-87
2022/10/04 07:42:18;;;;;;;9.70;7.43;;;;;;;8.94;100.00;153655.03;5029541;28;20443;-87
2022/10/04 07:44:53;;;;;;;11.40;8.50;;;;;;;8.95;100.00;153657.59;5030977;28;20443;-86
2022/10/04 07:47:23;;;;;;;10.47;8.33;;;;;;;9.02;100.00;153675.72;5051731;28;20453;-87
2022/10/04 07:49:52;;;;;;;11.53;8.20;;;;;;;9.08;100.00;153691.25;5048233;28;20518;-87
2022/10/04 07:52:38;;;;;;;9.27;7.33;;;;;;;9.16;100.00;153711.91;5020168;28;20427;-87
2022/10/04 07:55:17;;;;;;;8.90;7.50;;;;;;;9.21;100.00;153724.88;5016368;28;20979;-86
2022/10/04 07:57:51;;;;;;;9.23;6.97;;;;;;;9.25;100.00;153735.22;5004383;28;20451;-87
2022/10/04 08:00:22;;;;;;;10.93;7.10;;;;;;;9.38;100.00;153768.84;5015246;28;20472;-87
2022/10/04 08:03:08;;;;;;;10.17;7.77;;;;;;;9.36;100.00;153762.38;5033449;28;20486;-87
2022/10/04 08:05:37;;;;;;;10.53;7.87;;;;;;;9.39;100.00;153770.13;5032681;28;20432;-87
2022/10/04 08:08:24;;;;;;;8.80;7.53;;;;;;;9.49;100.00;153797.31;5032913;28;20471;-87
2022/10/04 08:10:57;;;;;;;11.00;8.10;;;;;;;9.62;100.00;153830.94;5015349;28;20535;-87
2022/10/04 08:13:29;;;;;;;9.90;7.27;;;;;;;9.73;100.00;153858.09;5032445;28;20463;-87
2022/10/04 08:16:03;;;;;;;10.67;7.77;;;;;;;9.82;100.00;153882.69;5032587;28;20759;-87
2022/10/04 08:18:39;;;;;;;10.73;7.67;;;;;;;9.92;100.00;153907.28;5032459;28;20436;-87
2022/10/04 08:21:07;;;;;;;9.20;8.10;;;;;;;9.99;100.00;153924.09;5030946;28;20451;-87
2022/10/04 08:24:04;;;;;;;10.97;8.53;;;;;;;10.13;100.00;153961.69;5010538;28;20463;-88
2022/10/04 08:26:48;;;;;;;9.60;7.97;;;;;;;10.21;100.00;153982.41;5010766;28;20942;-87
2022/10/04 08:29:41;;;;;;;10.80;8.30;;;;;;;10.23;100.00;153987.56;5018650;28;20491;-87
2022/10/04 08:32:22;;;;;;;10.90;7.77;;;;;;;10.30;100.00;154005.69;5018756;28;20459;-87
2022/10/04 08:35:08;;;;;;;12.30;10.57;;;;;;;10.33;100.00;154013.47;5018457;28;20796;-88
2022/10/04 08:37:43;;;;;;;8.60;7.70;;;;;;;10.38;100.00;154025.09;5017522;28;20443;-87
2022/10/04 08:40:38;;;;;;;9.33;8.33;;;;;;;10.42;100.00;154034.16;5035525;28;20476;-87
2022/10/04 08:43:24;;;;;;;9.83;8.60;;;;;;;10.46;100.00;154045.81;5009926;28;20499;-87
2022/10/04 08:46:18;;;;;;;9.37;8.37;;;;;;;10.55;100.00;154069.13;5016436;28;20421;-87
2022/10/04 08:49:00;;;;;;;11.37;8.73;;;;;;;10.62;100.00;154087.25;4971296;28;20456;-87
2022/10/04 08:51:54;;;;;;;9.87;7.80;;;;;;;10.61;100.00;154084.69;5017060;28;20443;-87
2022/10/04 08:54:36;;;;;;;9.20;7.40;;;;;;;10.72;100.00;154111.88;4999224;28;20534;-87
2022/10/04 08:57:14;;;;;;;8.47;7.00;;;;;;;10.67;100.00;154100.19;5041499;28;20509;-87
2022/10/04 09:00:04;;;;;;;9.57;7.50;;;;;;;10.78;100.00;154128.69;5052666;28;20467;-87
2022/10/04 09:03:00;;;;;;;8.50;7.60;;;;;;;10.85;100.00;154146.84;5041108;28;20442;-87
2022/10/04 09:05:44;;;;;;;9.70;7.77;;;;;;;10.91;100.00;154162.34;5045520;28;20446;-87
2022/10/04 09:08:40;;;;;;;8.47;7.07;;;;;;;10.96;100.00;154175.31;5035834;28;20412;-87
2022/10/04 09:11:34;;;;;;;7.63;6.93;;;;;;;11.05;100.00;154196.03;5043657;28;20502;-87
2022/10/04 09:14:18;;;;;;;10.57;6.70;;;;;;;11.17;100.00;154227.16;5015896;28;20459;-87
2022/10/04 09:16:46;;;;;;;8.07;7.30;;;;;;;11.33;100.00;154268.59;5021335;28;20466;-87
2022/10/04 09:19:21;;;;;;;9.20;7.50;;;;;;;11.42;100.00;154293.19;5043968;28;20450;-87
2022/10/04 09:22:11;;;;;;;9.53;6.20;;;;;;;11.48;100.00;154308.75;5046324;28;20585;-75
2022/10/04 09:25:00;;;;;;;11.33;5.30;;;;;;;11.46;100.00;154302.28;5042928;28;20467;-75
2022/10/04 09:27:40;;;;;;;6.50;4.80;;;;;;;11.71;100.00;154367.09;5048302;28;20482;-75
2022/10/04 09:30:19;;;;;;;10.93;5.80;;;;;;;11.72;100.00;154369.72;5030687;28;20447;-75
2022/10/04 09:33:08;;;;;;;8.83;4.83;;;;;;;11.87;100.00;154408.56;5024383;28;20462;-75
2022/10/04 09:36:12;;;;;;;6.10;4.87;;;;;;;12.09;100.00;154464.31;5027936;28;20523;-75
2022/10/04 09:39:10;;;;;;;8.63;5.33;;;;;;;12.07;100.00;154459.16;5050270;28;20525;-75
2022/10/04 09:41:48;;;;;;;8.50;5.60;;;;;;;12.13;100.00;154475.97;5046665;28;20447;-75
2022/10/04 09:44:48;;;;;;;7.00;4.67;;;;;;;12.16;99.79;154483.78;5025357;28;20485;-75
2022/10/04 09:47:36;;;;;;;6.23;4.00;;;;;;;12.35;98.56;154530.44;5033932;28;20546;-88
2022/10/04 09:50:34;;;;;;;5.10;4.20;;;;;;;12.38;98.19;154538.22;5023212;28;20531;-75
2022/10/04 09:53:19;;;;;;;6.70;3.97;;;;;;;12.36;98.11;154534.34;5047403;28;20447;-75
2022/10/04 09:56:01;;;;;;;4.57;4.10;;;;;;;12.33;97.31;154525.25;5020564;28;20474;-75
2022/10/04 09:58:44;;;;;;;6.07;4.23;;;;;;;12.32;97.32;154523.94;5045626;28;20836;-75
2022/10/04 10:01:15;;;;;;;6.70;4.30;;;;;;;12.33;96.58;154525.25;5047036;28;20486;-75
2022/10/04 10:04:06;;;;;;;5.23;4.10;;;;;;;12.43;95.79;154552.50;5047320;28;20934;-75
2022/10/04 10:06:54;;;;;;;6.13;4.50;;;;;;;12.43;95.22;154552.50;5007056;28;20541;-75
2022/10/04 10:15:18;;;;;;;5.53;4.10;;;;;;;12.84;95.73;154657.50;5044548;28;20451;-75
2022/10/04 10:17:51;;;;;;;5.07;3.67;;;;;;;12.78;93.70;154641.97;5049016;28;20453;-75
2022/10/04 10:20:29;;;;;;;4.67;4.17;;;;;;;12.76;94.80;154638.06;5047127;28;20570;-75
2022/10/04 10:23:30;;;;;;;5.63;4.00;;;;;;;12.79;96.83;154644.53;5004888;28;20473;-75
2022/10/04 10:26:08;;;;;;;6.90;4.40;;;;;;;12.89;96.63;154670.53;5018217;28;20549;-75
2022/10/04 10:28:46;;;;;;;7.37;4.90;;;;;;;12.93;96.79;154680.88;5050455;28;20465;-75
2022/10/04 10:31:26;;;;;;;5.17;4.60;;;;;;;12.99;96.92;154696.47;5042198;28;20455;-75
2022/10/04 10:34:17;;;;;;;5.50;4.63;;;;;;;13.01;96.76;154701.63;5023507;28;20479;-75
2022/10/04 10:36:59;;;;;;;5.73;5.10;;;;;;;13.06;97.61;154713.28;5047727;28;20451;-75
2022/10/04 10:39:53;;;;;;;6.87;4.40;;;;;;;13.13;97.16;154732.78;5047814;28;20446;-75
2022/10/04 10:42:42;;;;;;;4.90;4.40;;;;;;;13.17;98.20;154743.22;5048786;28;20473;-75
2022/10/04 10:45:30;;;;;;;6.40;4.77;;;;;;;13.20;97.68;154751.00;5042212;28;21094;-75
2022/10/04 10:48:00;;;;;;;8.93;5.10;;;;;;;13.24;96.73;154761.34;5025437;28;20490;-75
2022/10/04 10:54:08;;;;;;;5.53;4.13;;;;;;;13.53;95.04;154834.06;5048144;28;20435;-75
2022/10/04 10:56:43;;;;;;;4.13;3.73;;;;;;;13.67;93.26;154871.66;5032076;28;20486;-88
2022/10/04 11:00:13;;;;;;;4.43;3.63;;;;;;;13.58;93.13;154847.03;5043874;28;20462;-88
2022/10/04 11:03:10;;;;;;;9.13;3.77;;;;;;;13.74;91.85;154889.81;4884844;29;20468;-87
2022/10/04 11:06:12;;;;;;;6.07;4.40;;;;;;;13.91;90.11;154932.66;4962294;28;20450;-88
2022/10/04 11:09:18;;;;;;;6.80;4.27;;;;;;;13.84;89.69;154915.81;5041643;28;20454;-88
2022/10/04 11:12:03;;;;;;;5.33;4.20;;;;;;;13.73;90.73;154885.94;5029571;28;20482;-87
2022/10/04 11:14:50;;;;;;;5.13;4.20;;;;;;;13.83;90.97;154913.22;5050513;28;20443;-88
2022/10/04 11:17:45;;;;;;;7.50;4.37;;;;;;;13.91;90.58;154932.66;5052052;28;20450;-88
2022/10/04 11:20:35;;;;;;;5.70;4.40;;;;;;;14.03;90.58;154963.84;5048667;28;20470;-88
2022/10/04 11:23:37;;;;;;;4.33;3.80;;;;;;;14.13;91.22;154989.81;5032654;28;20458;-88
2022/10/04 11:26:24;;;;;;;6.77;4.03;;;;;;;14.06;89.31;154970.34;5050876;28;20458;-88
2022/10/04 11:28:55;;;;;;;4.97;4.03;;;;;;;14.05;91.07;154969.03;5034548;28;21048;-88
2022/10/04 11:31:52;;;;;;;5.80;3.77;;;;;;;14.04;91.65;154967.72;5021908;28;20454;-88
2022/10/04 11:34:45;;;;;;;8.07;4.10;;;;;;;14.04;93.68;154967.72;5049551;28;20451;-88
2022/10/04 11:37:18;;;;;;;9.90;5.27;;;;;;;14.45;92.42;155072.97;5053285;28;20462;-88
2022/10/04 11:40:02;;;;;;;6.23;4.57;;;;;;;14.47;90.48;155076.84;5052481;28;20957;-88
2022/10/04 11:42:43;;;;;;;5.40;4.33;;;;;;;14.47;90.91;155078.16;5024756;28;20463;-88
2022/10/04 11:45:43;;;;;;;8.37;4.70;;;;;;;14.37;91.12;155052.19;5050769;28;20449;-87
2022/10/04 11:48:19;;;;;;;6.87;4.80;;;;;;;14.47;90.56;155076.84;5044279;28;20467;-87
2022/10/04 11:51:01;;;;;;;6.60;4.60;;;;;;;14.51;91.33;155088.53;5034646;28;20458;-87
2022/10/04 11:54:03;;;;;;;4.80;4.40;;;;;;;14.70;91.21;155136.59;5052042;28;20485;-89
2022/10/04 11:56:39;;;;;;;7.13;4.43;;;;;;;14.63;91.67;155119.72;5024774;28;20582;-88
2022/10/04 11:59:21;;;;;;;7.30;4.60;;;;;;;14.71;90.15;155139.22;5050051;28;20442;-88
2022/10/04 12:02:07;;;;;;;6.10;4.63;;;;;;;14.67;91.81;155128.78;5054828;28;20478;-88
2022/10/04 12:04:55;;;;;;;7.63;4.47;;;;;;;14.60;92.52;155110.63;5052240;28;21003;-88
2022/10/04 12:07:27;;;;;;;4.23;3.63;;;;;;;14.64;92.96;155121.00;5030279;28;20454;-88
2022/10/04 12:10:02;;;;;;;4.47;3.87;;;;;;;14.75;92.73;155149.56;5054653;28;20732;-88
2022/10/04 12:12:46;;;;;;;7.43;3.97;;;;;;;14.79;93.55;155160.00;5034822;28;21014;-88